createdAt,value
2023-01-03T00:00:18.422Z,78.88
2023-01-03T00:01:18.367Z,78.78
2023-01-03T00:02:18.425Z,79.02
2023-01-03T00:03:18.345Z,79.02
2023-01-03T00:04:18.408Z,78.98
2023-01-03T00:05:18.316Z,78.92
2023-01-03T00:06:18.317Z,78.92
2023-01-03T00:07:18.299Z,79.02
2023-01-03T00:08:18.288Z,79.12
2023-01-03T00:09:18.283Z,79.12
2023-01-03T00:10:18.267Z,79.12
2023-01-03T00:11:18.267Z,79.22
2023-01-03T00:12:18.248Z,79.22
2023-01-03T00:13:18.257Z,79.22
2023-01-03T00:14:18.228Z,79.22
2023-01-03T00:15:18.206Z,79.22
2023-01-03T00:16:18.243Z,79.22
2023-01-03T00:17:18.271Z,79.22
2023-01-03T00:18:18.178Z,79.22
2023-01-03T00:19:18.163Z,79.33
2023-01-03T00:20:18.150Z,79.33
2023-01-03T00:21:18.136Z,79.33
2023-01-03T00:22:18.140Z,79.22
2023-01-03T00:23:18.126Z,79.22
2023-01-03T00:24:18.107Z,79.22
2023-01-03T00:25:18.101Z,79.22
2023-01-03T00:26:18.078Z,79.22
2023-01-03T00:27:18.079Z,79.33
2023-01-03T00:28:18.061Z,79.43
2023-01-03T00:29:18.090Z,79.53
2023-01-03T00:30:18.040Z,79.43
2023-01-03T00:31:18.094Z,79.43
2023-01-03T00:32:18.023Z,79.33
2023-01-03T00:33:18.010Z,79.33
2023-01-03T00:34:17.992Z,79.43
2023-01-03T00:35:18.036Z,79.43
2023-01-03T00:36:17.967Z,79.33
2023-01-03T00:37:17.970Z,79.33
2023-01-03T00:38:17.956Z,79.33
2023-01-03T00:39:17.934Z,79.33
2023-01-03T00:40:17.924Z,79.33
2023-01-03T00:41:17.939Z,79.33
2023-01-03T00:42:17.897Z,79.33
2023-01-03T00:43:17.890Z,79.33
2023-01-03T00:44:17.879Z,79.33
2023-01-03T00:45:20.331Z,79.33
2023-01-03T00:46:17.967Z,79.33
2023-01-03T00:47:17.847Z,79.33
2023-01-03T00:48:17.835Z,79.43
2023-01-03T00:49:17.822Z,79.43
2023-01-03T00:50:17.814Z,79.43
2023-01-03T00:51:17.801Z,79.43
2023-01-03T00:52:17.790Z,79.33
2023-01-03T00:53:17.774Z,79.37
2023-01-03T00:54:17.781Z,79.46
2023-01-03T00:55:17.753Z,79.57
2023-01-03T00:56:17.747Z,79.67
2023-01-03T00:57:17.726Z,79.67
2023-01-03T00:58:17.723Z,79.87
2023-01-03T00:59:17.715Z,79.87
2023-01-03T01:00:17.703Z,79.77
2023-01-03T01:01:17.840Z,79.67
2023-01-03T01:02:17.975Z,79.57
2023-01-03T01:03:18.085Z,79.53
2023-01-03T01:04:17.658Z,79.46
2023-01-03T01:05:17.659Z,79.46
2023-01-03T01:06:17.651Z,79.57
2023-01-03T01:07:17.627Z,79.57
2023-01-03T01:08:17.606Z,79.46
2023-01-03T01:09:17.599Z,79.37
2023-01-03T01:10:17.588Z,79.37
2023-01-03T01:11:17.586Z,79.37
2023-01-03T01:12:17.576Z,79.37
2023-01-03T01:13:17.553Z,79.26
2023-01-03T01:14:17.544Z,79.05
2023-01-03T01:15:17.525Z,78.96
2023-01-03T01:16:17.640Z,78.96
2023-01-03T01:17:22.363Z,78.96
2023-01-03T01:18:17.493Z,79.05
2023-01-03T01:19:17.488Z,79.05
2023-01-03T01:20:17.471Z,78.96
2023-01-03T01:21:17.468Z,78.96
2023-01-03T01:22:17.453Z,78.89
2023-01-03T01:23:17.437Z,78.89
2023-01-03T01:24:18.307Z,78.58
2023-01-03T01:25:17.412Z,78.38
2023-01-03T01:26:17.405Z,78.17
2023-01-03T01:27:17.398Z,78.07
2023-01-03T01:28:17.379Z,77.97
2023-01-03T01:29:17.417Z,77.76
2023-01-03T01:30:17.365Z,77.86
2023-01-03T01:31:17.479Z,77.86
2023-01-03T01:32:17.339Z,77.76
2023-01-03T01:33:17.356Z,77.56
2023-01-03T01:34:17.308Z,77.49
2023-01-03T01:35:17.305Z,77.35
2023-01-03T01:36:17.287Z,77.39
2023-01-03T01:37:17.280Z,77.45
2023-01-03T01:38:17.263Z,77.45
2023-01-03T01:39:17.258Z,77.60
2023-01-03T01:40:17.256Z,77.66
2023-01-03T01:41:17.300Z,77.76
2023-01-03T01:42:20.282Z,77.80
2023-01-03T01:43:17.206Z,77.86
2023-01-03T01:44:17.215Z,78.00
2023-01-03T01:45:17.181Z,78.11
2023-01-03T01:46:17.302Z,78.11
2023-01-03T01:47:17.167Z,78.11
2023-01-03T01:48:17.151Z,78.00
2023-01-03T01:49:17.183Z,77.90
2023-01-03T01:50:17.139Z,77.80
2023-01-03T01:51:17.128Z,77.70
2023-01-03T01:52:17.137Z,77.73
2023-01-03T01:53:17.096Z,77.73
2023-01-03T01:54:17.081Z,77.63
2023-01-03T01:55:17.080Z,77.63
2023-01-03T01:56:17.064Z,77.63
2023-01-03T01:57:17.061Z,77.63
2023-01-03T01:58:17.040Z,77.63
2023-01-03T01:59:17.031Z,77.53
2023-01-03T02:00:17.013Z,77.42
2023-01-03T02:01:17.176Z,77.42
2023-01-03T02:02:17.152Z,77.42
2023-01-03T02:03:17.110Z,77.53
2023-01-03T02:04:16.969Z,77.53
2023-01-03T02:05:16.982Z,77.32
2023-01-03T02:06:16.945Z,77.22
2023-01-03T02:07:16.941Z,77.12
2023-01-03T02:08:16.937Z,77.12
2023-01-03T02:09:16.922Z,77.12
2023-01-03T02:10:16.907Z,77.12
2023-01-03T02:11:16.897Z,77.02
2023-01-03T02:12:16.879Z,77.05
2023-01-03T02:13:16.898Z,77.16
2023-01-03T02:14:16.861Z,77.16
2023-01-03T02:15:16.853Z,77.16
2023-01-03T02:16:16.936Z,77.25
2023-01-03T02:17:16.823Z,77.25
2023-01-03T02:18:16.830Z,77.46
2023-01-03T02:19:16.810Z,77.56
2023-01-03T02:20:16.799Z,77.46
2023-01-03T02:21:19.994Z,77.36
2023-01-03T02:22:16.768Z,77.36
2023-01-03T02:23:16.761Z,77.36
2023-01-03T02:24:16.745Z,77.36
2023-01-03T02:25:16.731Z,77.46
2023-01-03T02:26:16.765Z,77.56
2023-01-03T02:27:16.727Z,77.50
2023-01-03T02:28:16.722Z,77.39
2023-01-03T02:29:16.698Z,77.39
2023-01-03T02:30:16.683Z,77.39
2023-01-03T02:31:16.773Z,77.39
2023-01-03T02:32:16.660Z,77.50
2023-01-03T02:33:16.652Z,77.39
2023-01-03T02:34:16.647Z,77.39
2023-01-03T02:35:16.635Z,77.39
2023-01-03T02:36:16.609Z,77.39
2023-01-03T02:37:16.638Z,77.50
2023-01-03T02:38:16.590Z,77.39
2023-01-03T02:39:21.914Z,77.29
2023-01-03T02:40:16.575Z,77.39
2023-01-03T02:41:16.557Z,77.39
2023-01-03T02:42:16.544Z,77.29
2023-01-03T02:43:16.539Z,77.29
2023-01-03T02:44:16.540Z,77.22
2023-01-03T02:45:16.523Z,77.29
2023-01-03T02:46:16.605Z,77.13
2023-01-03T02:47:16.489Z,77.02
2023-01-03T02:48:16.490Z,77.13
2023-01-03T02:49:16.473Z,77.13
2023-01-03T02:50:16.457Z,77.02
2023-01-03T02:51:16.448Z,76.92
2023-01-03T02:52:16.436Z,76.71
2023-01-03T02:53:16.448Z,76.51
2023-01-03T02:54:16.418Z,76.30
2023-01-03T02:55:16.405Z,76.20
2023-01-03T02:56:16.403Z,76.30
2023-01-03T02:57:16.392Z,76.30
2023-01-03T02:58:16.378Z,76.34
2023-01-03T02:59:16.359Z,76.34
2023-01-03T03:00:16.349Z,76.64
2023-01-03T03:01:16.413Z,76.64
2023-01-03T03:02:16.500Z,76.75
2023-01-03T03:03:16.614Z,76.55
2023-01-03T03:04:16.309Z,76.55
2023-01-03T03:05:16.284Z,76.44
2023-01-03T03:06:16.290Z,76.13
2023-01-03T03:07:16.268Z,75.93
2023-01-03T03:08:16.267Z,75.62
2023-01-03T03:09:16.272Z,75.42
2023-01-03T03:10:16.240Z,75.31
2023-01-03T03:11:16.234Z,75.31
2023-01-03T03:12:16.222Z,75.25
2023-01-03T03:13:16.198Z,75.04
2023-01-03T03:14:16.193Z,74.84
2023-01-03T03:15:16.180Z,74.73
2023-01-03T03:16:16.257Z,74.63
2023-01-03T03:17:16.165Z,74.42
2023-01-03T03:18:16.153Z,74.32
2023-01-03T03:19:16.136Z,74.22
2023-01-03T03:20:16.134Z,74.12
2023-01-03T03:21:16.111Z,73.80
2023-01-03T03:22:16.094Z,73.91
2023-01-03T03:23:16.086Z,74.01
2023-01-03T03:24:16.080Z,74.12
2023-01-03T03:25:16.091Z,74.12
2023-01-03T03:26:16.069Z,73.95
2023-01-03T03:27:16.048Z,73.95
2023-01-03T03:28:16.035Z,74.15
2023-01-03T03:29:16.052Z,74.15
2023-01-03T03:30:16.019Z,74.25
2023-01-03T03:31:16.079Z,74.25
2023-01-03T03:32:15.997Z,74.25
2023-01-03T03:33:15.980Z,74.25
2023-01-03T03:34:15.968Z,74.35
2023-01-03T03:35:15.958Z,74.25
2023-01-03T03:36:15.939Z,74.25
2023-01-03T03:37:15.932Z,74.15
2023-01-03T03:38:15.922Z,74.15
2023-01-03T03:39:15.911Z,74.25
2023-01-03T03:40:15.920Z,74.29
2023-01-03T03:41:16.010Z,74.39
2023-01-03T03:42:15.911Z,74.49
2023-01-03T03:43:15.880Z,74.49
2023-01-03T03:44:15.865Z,74.49
2023-01-03T03:45:15.841Z,74.49
2023-01-03T03:46:15.876Z,74.59
2023-01-03T03:47:15.881Z,74.49
2023-01-03T03:48:15.810Z,74.49
2023-01-03T03:49:15.802Z,74.59
2023-01-03T03:50:15.790Z,74.59
2023-01-03T03:51:15.776Z,74.59
2023-01-03T03:52:15.765Z,74.80
2023-01-03T03:53:15.763Z,74.80
2023-01-03T03:54:15.755Z,74.94
2023-01-03T03:55:15.744Z,75.04
2023-01-03T03:56:15.728Z,75.14
2023-01-03T03:57:15.739Z,75.14
2023-01-03T03:58:15.713Z,75.35
2023-01-03T03:59:15.715Z,75.35
2023-01-03T04:00:15.672Z,75.35
2023-01-03T04:01:15.711Z,75.45
2023-01-03T04:02:15.818Z,75.56
2023-01-03T04:03:15.821Z,75.66
2023-01-03T04:04:15.639Z,75.76
2023-01-03T04:05:15.630Z,75.86
2023-01-03T04:06:15.616Z,75.86
2023-01-03T04:07:15.615Z,75.86
2023-01-03T04:08:15.592Z,75.97
2023-01-03T04:09:15.575Z,75.97
2023-01-03T04:10:15.574Z,76.07
2023-01-03T04:11:15.566Z,75.97
2023-01-03T04:12:15.554Z,76.07
2023-01-03T04:13:15.562Z,76.17
2023-01-03T04:14:15.528Z,76.28
2023-01-03T04:15:15.512Z,76.37
2023-01-03T04:16:15.535Z,76.37
2023-01-03T04:17:15.494Z,76.37
2023-01-03T04:18:15.499Z,76.37
2023-01-03T04:19:15.473Z,76.58
2023-01-03T04:20:15.463Z,76.58
2023-01-03T04:21:20.414Z,76.58
2023-01-03T04:22:15.431Z,76.58
2023-01-03T04:23:15.424Z,76.69
2023-01-03T04:24:15.415Z,76.79
2023-01-03T04:25:15.409Z,76.89
2023-01-03T04:26:15.387Z,76.92
2023-01-03T04:27:15.388Z,76.89
2023-01-03T04:28:15.367Z,76.92
2023-01-03T04:29:15.386Z,77.03
2023-01-03T04:30:15.356Z,77.13
2023-01-03T04:31:15.408Z,77.13
2023-01-03T04:32:15.444Z,77.23
2023-01-03T04:33:15.312Z,77.44
2023-01-03T04:34:15.329Z,77.44
2023-01-03T04:35:15.287Z,77.44
2023-01-03T04:36:15.277Z,77.55
2023-01-03T04:37:15.271Z,77.64
2023-01-03T04:38:15.263Z,77.64
2023-01-03T04:39:15.251Z,77.64
2023-01-03T04:40:15.233Z,77.64
2023-01-03T04:41:15.219Z,77.64
2023-01-03T04:42:15.216Z,77.64
2023-01-03T04:43:15.216Z,77.75
2023-01-03T04:44:15.202Z,77.75
2023-01-03T04:45:15.204Z,77.75
2023-01-03T04:46:15.231Z,77.78
2023-01-03T04:47:15.162Z,77.89
2023-01-03T04:48:15.149Z,77.89
2023-01-03T04:49:15.143Z,77.78
2023-01-03T04:50:15.123Z,77.89
2023-01-03T04:51:15.109Z,77.99
2023-01-03T04:52:15.103Z,77.89
2023-01-03T04:53:15.099Z,77.89
2023-01-03T04:54:15.080Z,77.99
2023-01-03T04:55:15.090Z,77.99
2023-01-03T04:56:15.089Z,77.99
2023-01-03T04:57:15.065Z,77.99
2023-01-03T04:58:15.041Z,77.99
2023-01-03T04:59:15.028Z,77.99
2023-01-03T05:00:15.081Z,77.89
2023-01-03T05:01:15.160Z,77.89
2023-01-03T05:02:15.165Z,77.89
2023-01-03T05:03:14.988Z,77.89
2023-01-03T05:04:15.055Z,77.89
2023-01-03T05:05:14.979Z,77.89
2023-01-03T05:06:14.944Z,77.99
2023-01-03T05:07:14.944Z,77.99
2023-01-03T05:08:14.926Z,78.10
2023-01-03T05:09:14.913Z,78.24
2023-01-03T05:10:14.919Z,78.33
2023-01-03T05:11:14.896Z,78.30
2023-01-03T05:12:14.888Z,78.30
2023-01-03T05:13:14.874Z,78.44
2023-01-03T05:14:15.009Z,78.54
2023-01-03T05:15:14.839Z,78.54
2023-01-03T05:16:14.908Z,78.64
2023-01-03T05:17:14.854Z,78.75
2023-01-03T05:18:14.819Z,78.75
2023-01-03T05:19:14.801Z,78.75
2023-01-03T05:20:14.791Z,78.75
2023-01-03T05:21:14.781Z,78.85
2023-01-03T05:22:14.762Z,78.85
2023-01-03T05:23:14.757Z,78.96
2023-01-03T05:24:14.756Z,78.96
2023-01-03T05:25:14.748Z,78.96
2023-01-03T05:26:14.735Z,79.06
2023-01-03T05:27:14.722Z,79.06
2023-01-03T05:28:17.503Z,79.16
2023-01-03T05:29:14.685Z,79.26
2023-01-03T05:30:14.700Z,79.37
2023-01-03T05:31:14.680Z,79.47
2023-01-03T05:32:14.739Z,79.68
2023-01-03T05:33:14.662Z,79.78
2023-01-03T05:34:14.633Z,79.88
2023-01-03T05:35:14.619Z,79.98
2023-01-03T05:36:16.463Z,80.09
2023-01-03T05:37:14.614Z,80.19
2023-01-03T05:38:14.586Z,80.19
2023-01-03T05:39:14.582Z,80.29
2023-01-03T05:40:14.568Z,80.29
2023-01-03T05:41:14.551Z,80.40
2023-01-03T05:42:14.536Z,80.40
2023-01-03T05:43:14.544Z,80.50
2023-01-03T05:44:14.534Z,80.50
2023-01-03T05:45:14.514Z,80.60
2023-01-03T05:46:14.637Z,80.70
2023-01-03T05:47:14.479Z,80.81
2023-01-03T05:48:14.480Z,80.81
2023-01-03T05:49:14.482Z,80.91
2023-01-03T05:50:14.447Z,80.91
2023-01-03T05:51:14.432Z,80.91
2023-01-03T05:52:14.417Z,80.81
2023-01-03T05:53:14.412Z,80.91
2023-01-03T05:54:14.401Z,80.95
2023-01-03T05:55:14.396Z,81.05
2023-01-03T05:56:14.393Z,81.05
2023-01-03T05:57:14.386Z,81.15
2023-01-03T05:58:14.377Z,81.15
2023-01-03T05:59:14.370Z,81.26
2023-01-03T06:00:14.336Z,81.15
2023-01-03T06:01:14.399Z,81.15
2023-01-03T06:02:14.432Z,81.26
2023-01-03T06:03:14.318Z,81.15
2023-01-03T06:04:14.405Z,81.15
2023-01-03T06:05:14.320Z,81.05
2023-01-03T06:06:14.266Z,80.95
2023-01-03T06:07:14.284Z,80.95
2023-01-03T06:08:14.247Z,80.84
2023-01-03T06:09:14.226Z,80.84
2023-01-03T06:10:14.211Z,80.84
2023-01-03T06:11:14.242Z,80.84
2023-01-03T06:12:14.194Z,80.84
2023-01-03T06:13:14.185Z,80.95
2023-01-03T06:14:14.172Z,80.95
2023-01-03T06:15:14.218Z,80.95
2023-01-03T06:16:14.236Z,80.84
2023-01-03T06:17:14.170Z,80.95
2023-01-03T06:18:14.161Z,80.95
2023-01-03T06:19:14.115Z,80.88
2023-01-03T06:20:14.114Z,80.88
2023-01-03T06:21:14.159Z,80.88
2023-01-03T06:22:14.088Z,80.88
2023-01-03T06:23:14.064Z,80.98
2023-01-03T06:24:14.052Z,80.98
2023-01-03T06:25:14.054Z,80.88
2023-01-03T06:26:14.046Z,80.78
2023-01-03T06:27:14.022Z,80.78
2023-01-03T06:28:14.005Z,80.78
2023-01-03T06:29:13.995Z,80.78
2023-01-03T06:30:13.981Z,80.78
2023-01-03T06:31:14.077Z,80.78
2023-01-03T06:32:13.963Z,80.78
2023-01-03T06:33:13.954Z,80.78
2023-01-03T06:34:13.937Z,80.78
2023-01-03T06:35:13.939Z,80.78
2023-01-03T06:36:13.910Z,80.78
2023-01-03T06:37:13.931Z,80.78
2023-01-03T06:38:13.898Z,80.78
2023-01-03T06:39:13.880Z,80.88
2023-01-03T06:40:13.900Z,80.88
2023-01-03T06:41:13.880Z,80.88
2023-01-03T06:42:13.844Z,80.88
2023-01-03T06:43:13.829Z,80.98
2023-01-03T06:44:13.820Z,80.88
2023-01-03T06:45:13.816Z,80.92
2023-01-03T06:46:13.857Z,80.98
2023-01-03T06:47:13.802Z,80.88
2023-01-03T06:48:13.773Z,81.03
2023-01-03T06:49:13.778Z,81.03
2023-01-03T06:50:13.786Z,81.12
2023-01-03T06:51:13.746Z,81.23
2023-01-03T06:52:13.728Z,81.43
2023-01-03T06:53:13.746Z,81.54
2023-01-03T06:54:13.707Z,81.54
2023-01-03T06:55:13.701Z,81.64
2023-01-03T06:56:13.702Z,81.64
2023-01-03T06:57:26.477Z,81.75
2023-01-03T06:58:13.668Z,81.75
2023-01-03T06:59:13.651Z,81.85
2023-01-03T07:00:13.640Z,81.95
2023-01-03T07:01:13.703Z,81.85
2023-01-03T07:02:15.834Z,81.95
2023-01-03T07:03:13.719Z,81.95
2023-01-03T07:04:13.691Z,82.05
2023-01-03T07:05:13.585Z,82.15
2023-01-03T07:06:13.576Z,82.26
2023-01-03T07:07:13.571Z,82.26
2023-01-03T07:08:13.552Z,82.26
2023-01-03T07:09:13.563Z,82.36
2023-01-03T07:10:13.540Z,82.36
2023-01-03T07:11:13.532Z,82.47
2023-01-03T07:12:13.516Z,82.47
2023-01-03T07:13:13.507Z,82.47
2023-01-03T07:14:13.486Z,82.47
2023-01-03T07:15:13.477Z,82.47
2023-01-03T07:16:13.534Z,82.47
2023-01-03T07:17:13.451Z,82.57
2023-01-03T07:18:13.444Z,82.67
2023-01-03T07:19:13.471Z,82.78
2023-01-03T07:20:13.425Z,82.78
2023-01-03T07:21:13.408Z,82.88
2023-01-03T07:22:13.396Z,82.98
2023-01-03T07:23:13.383Z,82.88
2023-01-03T07:24:13.378Z,82.88
2023-01-03T07:25:13.388Z,82.88
2023-01-03T07:26:13.363Z,82.88
2023-01-03T07:27:13.346Z,82.98
2023-01-03T07:28:13.402Z,82.88
2023-01-03T07:29:13.323Z,82.88
2023-01-03T07:30:13.311Z,82.88
2023-01-03T07:31:13.412Z,82.88
2023-01-03T07:32:13.291Z,82.88
2023-01-03T07:33:13.276Z,82.88
2023-01-03T07:34:13.276Z,82.88
2023-01-03T07:35:13.249Z,82.88
2023-01-03T07:36:13.250Z,82.78
2023-01-03T07:37:13.227Z,82.78
2023-01-03T07:38:13.216Z,82.78
2023-01-03T07:39:13.215Z,82.78
2023-01-03T07:40:13.200Z,82.78
2023-01-03T07:41:13.271Z,82.57
2023-01-03T07:42:13.174Z,82.47
2023-01-03T07:43:13.170Z,82.36
2023-01-03T07:44:13.154Z,82.33
2023-01-03T07:45:13.144Z,82.22
2023-01-03T07:46:13.167Z,82.26
2023-01-03T07:47:13.118Z,82.26
2023-01-03T07:48:13.116Z,82.26
2023-01-03T07:49:13.122Z,82.26
2023-01-03T07:50:13.085Z,82.26
2023-01-03T07:51:13.071Z,82.26
2023-01-03T07:52:13.082Z,82.26
2023-01-03T07:53:13.064Z,82.15
2023-01-03T07:54:13.046Z,82.15
2023-01-03T07:55:13.042Z,82.12
2023-01-03T07:56:13.696Z,82.01
2023-01-03T07:57:13.045Z,81.91
2023-01-03T07:58:13.006Z,81.91
2023-01-03T07:59:13.000Z,81.71
2023-01-03T08:00:12.978Z,81.61
2023-01-03T08:01:13.159Z,81.50
2023-01-03T08:02:13.146Z,81.50
2023-01-03T08:03:12.981Z,81.46
2023-01-03T08:04:12.986Z,81.36
2023-01-03T08:05:13.001Z,81.26
2023-01-03T08:06:12.912Z,81.15
2023-01-03T08:07:12.917Z,81.05
2023-01-03T08:08:12.896Z,81.05
2023-01-03T08:09:12.875Z,81.05
2023-01-03T08:10:12.881Z,80.81
2023-01-03T08:11:12.909Z,80.50
2023-01-03T08:12:12.868Z,80.29
2023-01-03T08:13:12.860Z,80.19
2023-01-03T08:14:12.826Z,80.09
2023-01-03T08:15:12.868Z,80.09
2023-01-03T08:16:12.865Z,79.98
2023-01-03T08:17:12.853Z,79.98
2023-01-03T08:18:12.785Z,79.74
2023-01-03T08:19:12.763Z,79.64
2023-01-03T08:20:12.761Z,79.54
2023-01-03T08:21:12.749Z,79.33
2023-01-03T08:22:12.735Z,79.22
2023-01-03T08:23:12.723Z,79.19
2023-01-03T08:24:12.727Z,78.88
2023-01-03T08:25:12.701Z,78.68
2023-01-03T08:26:12.696Z,78.13
2023-01-03T08:27:12.688Z,77.92
2023-01-03T08:28:12.673Z,77.71
2023-01-03T08:29:12.685Z,77.37
2023-01-03T08:30:12.643Z,76.96
2023-01-03T08:31:12.702Z,76.72
2023-01-03T08:32:12.641Z,76.51
2023-01-03T08:33:12.614Z,75.65
2023-01-03T08:34:18.672Z,75.10
2023-01-03T08:35:12.600Z,74.29
2023-01-03T08:36:12.573Z,73.88
2023-01-03T08:37:12.558Z,73.88
2023-01-03T08:38:12.550Z,73.88
2023-01-03T08:39:12.548Z,74.18
2023-01-03T08:40:12.530Z,73.95
2023-01-03T08:41:12.524Z,73.77
2023-01-03T08:42:12.511Z,73.53
2023-01-03T08:43:12.500Z,73.53
2023-01-03T08:44:12.505Z,73.19
2023-01-03T08:45:12.527Z,72.65
2023-01-03T08:46:12.532Z,72.03
2023-01-03T08:47:12.573Z,72.17
2023-01-03T08:48:12.440Z,72.27
2023-01-03T08:49:12.424Z,72.17
2023-01-03T08:50:12.459Z,72.17
2023-01-03T08:51:12.406Z,72.37
2023-01-03T08:52:12.400Z,72.50
2023-01-03T08:53:12.434Z,72.50
2023-01-03T08:54:12.366Z,72.50
2023-01-03T08:55:12.368Z,72.30
2023-01-03T08:56:12.345Z,72.50
2023-01-03T08:57:12.337Z,72.37
2023-01-03T08:58:12.329Z,72.17
2023-01-03T08:59:12.305Z,71.86
2023-01-03T09:00:12.304Z,71.86
2023-01-03T09:01:12.479Z,71.75
2023-01-03T09:02:12.525Z,71.72
2023-01-03T09:03:12.498Z,71.31
2023-01-03T09:04:12.377Z,70.87
2023-01-03T09:05:12.238Z,70.43
2023-01-03T09:06:12.235Z,69.47
2023-01-03T09:07:12.228Z,68.73
2023-01-03T09:08:12.208Z,67.84
2023-01-03T09:09:12.197Z,66.96
2023-01-03T09:10:12.191Z,65.81
2023-01-03T09:11:12.176Z,64.83
2023-01-03T09:12:12.158Z,63.55
2023-01-03T09:13:12.148Z,62.60
2023-01-03T09:14:12.140Z,61.63
2023-01-03T09:15:12.136Z,60.89
2023-01-03T09:16:12.199Z,60.05
2023-01-03T09:17:12.187Z,59.84
2023-01-03T09:18:12.102Z,59.44
2023-01-03T09:19:12.080Z,58.90
2023-01-03T09:20:12.075Z,58.36
2023-01-03T09:21:12.129Z,57.78
2023-01-03T09:22:12.055Z,58.39
2023-01-03T09:23:12.042Z,58.70
2023-01-03T09:24:12.045Z,58.06
2023-01-03T09:25:12.024Z,57.73
2023-01-03T09:26:12.005Z,56.99
2023-01-03T09:27:11.999Z,56.46
2023-01-03T09:28:11.986Z,56.08
2023-01-03T09:29:11.966Z,56.66
2023-01-03T09:30:11.961Z,56.33
2023-01-03T09:31:11.969Z,55.42
2023-01-03T09:32:12.035Z,54.91
2023-01-03T09:33:11.985Z,55.72
2023-01-03T09:34:11.910Z,55.42
2023-01-03T09:35:11.913Z,54.38
2023-01-03T09:36:11.891Z,54.18
2023-01-03T09:37:11.884Z,53.87
2023-01-03T09:38:11.881Z,54.38
2023-01-03T09:39:11.861Z,54.20
2023-01-03T09:40:11.852Z,54.68
2023-01-03T09:41:11.837Z,54.46
2023-01-03T09:42:11.851Z,53.54
2023-01-03T09:43:11.823Z,53.32
2023-01-03T09:44:11.803Z,52.91
2023-01-03T09:45:11.787Z,52.89
2023-01-03T09:46:11.792Z,52.78
2023-01-03T09:47:11.839Z,52.45
2023-01-03T09:48:11.767Z,52.48
2023-01-03T09:49:11.767Z,53.22
2023-01-03T09:50:29.570Z,53.64
2023-01-03T09:51:24.164Z,53.34
2023-01-03T09:52:11.707Z,53.14
2023-01-03T09:53:11.694Z,52.81
2023-01-03T09:54:11.697Z,52.69
2023-01-03T09:55:11.690Z,52.86
2023-01-03T09:56:11.663Z,51.62
2023-01-03T09:57:11.661Z,51.83
2023-01-03T09:58:11.649Z,51.09
2023-01-03T09:59:11.640Z,50.67
2023-01-03T10:00:11.623Z,50.04
2023-01-03T10:01:11.764Z,50.09
2023-01-03T10:02:11.891Z,50.74
2023-01-03T10:03:11.842Z,52.63
2023-01-03T10:04:11.597Z,54.00
2023-01-03T10:05:11.604Z,54.53
2023-01-03T10:06:11.586Z,55.20
2023-01-03T10:07:11.553Z,55.62
2023-01-03T10:08:11.568Z,56.39
2023-01-03T10:09:11.535Z,57.25
2023-01-03T10:10:14.412Z,58.70
2023-01-03T10:11:11.516Z,59.04
2023-01-03T10:12:11.536Z,59.01
2023-01-03T10:13:17.818Z,58.94
2023-01-03T10:14:11.474Z,58.74
2023-01-03T10:15:11.470Z,59.11
2023-01-03T10:16:11.528Z,58.17
2023-01-03T10:17:11.475Z,57.89
2023-01-03T10:18:11.431Z,56.21
2023-01-03T10:19:11.431Z,55.21
2023-01-03T10:20:11.400Z,53.75
2023-01-03T10:21:11.428Z,52.99
2023-01-03T10:22:11.428Z,51.95
2023-01-03T10:23:11.414Z,52.36
2023-01-03T10:24:11.371Z,51.42
2023-01-03T10:25:11.355Z,51.32
2023-01-03T10:26:11.337Z,51.42
2023-01-03T10:27:11.333Z,51.65
2023-01-03T10:28:11.324Z,52.36
2023-01-03T10:29:11.316Z,52.30
2023-01-03T10:30:11.293Z,53.19
2023-01-03T10:31:11.287Z,54.68
2023-01-03T10:32:11.387Z,55.95
2023-01-03T10:33:11.265Z,57.40
2023-01-03T10:34:11.261Z,57.64
2023-01-03T10:35:11.246Z,58.17
2023-01-03T10:36:11.231Z,59.01
2023-01-03T10:37:11.243Z,59.35
2023-01-03T10:38:11.209Z,59.88
2023-01-03T10:39:11.197Z,60.19
2023-01-03T10:40:11.186Z,60.69
2023-01-03T10:41:11.171Z,60.93
2023-01-03T10:42:11.170Z,61.74
2023-01-03T10:43:11.147Z,61.41
2023-01-03T10:44:11.141Z,60.93
2023-01-03T10:45:11.123Z,61.44
2023-01-03T10:46:11.164Z,62.02
2023-01-03T10:47:11.107Z,60.61
2023-01-03T10:48:11.100Z,59.00
2023-01-03T10:50:11.084Z,56.73
2023-01-03T10:51:11.062Z,55.64
2023-01-03T10:52:11.054Z,53.57
2023-01-03T10:53:11.163Z,52.94
2023-01-03T10:54:11.027Z,52.84
2023-01-03T10:55:11.038Z,52.71
2023-01-03T10:56:11.010Z,51.91
2023-01-03T10:57:10.988Z,51.80
2023-01-03T10:58:10.987Z,52.11
2023-01-03T10:59:10.973Z,51.91
2023-01-03T11:00:10.963Z,51.93
2023-01-03T11:01:11.090Z,52.13
2023-01-03T11:02:11.206Z,52.74
2023-01-03T11:03:11.124Z,52.63
2023-01-03T11:04:10.917Z,52.84
2023-01-03T11:05:10.914Z,52.43
2023-01-03T11:06:10.892Z,53.09
2023-01-03T11:07:10.883Z,54.05
2023-01-03T11:08:10.864Z,55.62
2023-01-03T11:09:10.892Z,55.32
2023-01-03T11:10:10.838Z,55.65
2023-01-03T11:11:10.838Z,56.18
2023-01-03T11:12:10.827Z,55.82
2023-01-03T11:13:10.811Z,55.85
2023-01-03T11:14:10.800Z,56.39
2023-01-03T11:15:10.788Z,56.89
2023-01-03T11:16:10.840Z,56.48
2023-01-03T11:17:10.866Z,56.33
2023-01-03T11:18:10.762Z,55.72
2023-01-03T11:19:10.793Z,55.19
2023-01-03T11:20:10.730Z,55.24
2023-01-03T11:21:10.726Z,56.61
2023-01-03T11:22:10.714Z,57.02
2023-01-03T11:23:10.703Z,56.69
2023-01-03T11:24:10.684Z,56.35
2023-01-03T11:25:10.695Z,56.89
2023-01-03T11:26:10.669Z,56.92
2023-01-03T11:27:10.659Z,57.37
2023-01-03T11:28:16.013Z,58.52
2023-01-03T11:29:10.634Z,58.72
2023-01-03T11:30:10.624Z,59.16
2023-01-03T11:31:10.615Z,59.90
2023-01-03T11:32:10.721Z,60.51
2023-01-03T11:33:10.590Z,60.23
2023-01-03T11:34:10.583Z,60.46
2023-01-03T11:35:25.969Z,61.07
2023-01-03T11:36:10.553Z,61.07
2023-01-03T11:37:10.547Z,61.21
2023-01-03T11:38:10.546Z,61.77
2023-01-03T11:39:15.362Z,63.10
2023-01-03T11:40:10.506Z,62.59
2023-01-03T11:41:10.533Z,62.66
2023-01-03T11:42:10.500Z,62.56
2023-01-03T11:43:10.481Z,62.46
2023-01-03T11:44:10.466Z,62.49
2023-01-03T11:45:10.454Z,63.00
2023-01-03T11:46:10.508Z,62.66
2023-01-03T11:47:10.431Z,62.76
2023-01-03T11:48:10.412Z,62.35
2023-01-03T11:49:10.432Z,62.25
2023-01-03T11:50:10.398Z,62.05
2023-01-03T11:51:10.387Z,62.25
2023-01-03T11:52:10.391Z,62.46
2023-01-03T11:53:10.358Z,62.79
2023-01-03T11:54:10.345Z,63.23
2023-01-03T11:55:10.352Z,63.67
2023-01-03T11:56:10.334Z,63.97
2023-01-03T11:57:10.350Z,64.38
2023-01-03T11:58:10.318Z,64.58
2023-01-03T11:59:10.297Z,64.18
2023-01-03T12:00:10.282Z,64.15
2023-01-03T12:01:10.320Z,64.21
2023-01-03T12:02:10.450Z,64.92
2023-01-03T12:03:10.427Z,64.72
2023-01-03T12:04:10.276Z,64.82
2023-01-03T12:05:10.225Z,64.58
2023-01-03T12:06:10.221Z,63.74
2023-01-03T12:08:10.200Z,62.82
2023-01-03T12:09:10.177Z,62.76
2023-01-03T12:10:10.168Z,62.39
2023-01-03T12:11:10.158Z,63.15
2023-01-03T12:12:10.149Z,63.67
2023-01-03T12:13:10.158Z,63.80
2023-01-03T12:14:10.122Z,63.90
2023-01-03T12:15:10.113Z,63.97
2023-01-03T12:16:10.201Z,63.36
2023-01-03T12:17:10.091Z,63.53
2023-01-03T12:18:10.096Z,62.59
2023-01-03T12:19:12.512Z,62.15
2023-01-03T12:20:10.057Z,62.05
2023-01-03T12:21:10.048Z,61.74
2023-01-03T12:22:10.039Z,62.05
2023-01-03T12:23:10.043Z,62.08
2023-01-03T12:24:10.029Z,62.18
2023-01-03T12:25:10.009Z,62.49
2023-01-03T12:26:09.993Z,62.72
2023-01-03T12:27:10.001Z,63.03
2023-01-03T12:28:09.979Z,62.82
2023-01-03T12:29:09.989Z,63.06
2023-01-03T12:30:09.941Z,63.67
2023-01-03T12:31:09.993Z,63.70
2023-01-03T12:32:09.924Z,64.00
2023-01-03T12:33:09.916Z,64.00
2023-01-03T12:34:09.900Z,64.11
2023-01-03T12:35:09.893Z,63.39
2023-01-03T12:36:09.891Z,63.49
2023-01-03T12:37:09.881Z,63.39
2023-01-03T12:38:09.863Z,63.59
2023-01-03T12:39:09.856Z,62.85
2023-01-03T12:40:09.834Z,62.34
2023-01-03T12:41:09.826Z,62.06
2023-01-03T12:42:09.818Z,62.37
2023-01-03T12:43:09.797Z,62.37
2023-01-03T12:44:09.797Z,62.27
2023-01-03T12:45:09.825Z,62.27
2023-01-03T12:46:13.001Z,61.93
2023-01-03T12:47:09.837Z,61.93
2023-01-03T12:48:09.744Z,61.09
2023-01-03T12:49:09.749Z,61.29
2023-01-03T12:50:09.744Z,60.88
2023-01-03T12:51:09.716Z,60.47
2023-01-03T12:52:14.959Z,60.71
2023-01-03T12:53:09.687Z,61.24
2023-01-03T12:54:09.697Z,61.68